Saint Barthelemy, St. Barthelemy

12:42 AM AST on July 25, 2016 (GMT -0400)
Flamands | | Change Station

Elev 30 ft 17.92 °N, 62.86 °W | Updated 53 seconds ago

Partly Cloudy
Partly Cloudy
81.9 °F
Feels Like 87 °F
N
1.2
Wind Variable Wind from North
Gusts 3.9 mph

Today
High -- | Low -- °F
--% Chance of Precip.
Yesterday
High -- | Low -- °F
Precip. -- in
Pressure 30.01 in
Visibility 6.2 miles
Clouds Few 2000 ft
Heat Index 87 °F
Dew Point 74 °F
Humidity 75%
Rainfall 0.00 in
Snow Depth Not available.
5:47 AM 6:47 PM
Waning Gibbous, 70% visible
METAR TNCM 250400Z 09011KT 9999 FEW020 28/24 Q1016 A3002
Pressure 30.01 in
Visibility 6.2 miles
Clouds Few 2000 ft
Heat Index 87 °F
Dew Point 74 °F
Humidity 75%
Rainfall 0.00 in
Snow Depth Not available.
5:47 AM 6:47 PM
Waning Gibbous, 70% visible
METAR TNCM 250400Z 09011KT 9999 FEW020 28/24 Q1016 A3002

10-Day Weather Forecast

No radar image for this location.
×

Almanac

Astronomy

Jul. 25, 2016 Rise Set
Actual Time
Civil Twilight
Nautical Twilight
Astronomical Twilight
Moon
Length of Visible Light
Length of Day
Tomorrow will be .
, % of the Moon is Illuminated

Today's Extremes

Country Highs Country Lows

Community

WunderPhotos

Upload Photos

1,927,266 photos uploaded!

WunderBlog® & News

Nearby

Air Quality

  Air Quality AQ Index Pollutant
Not available.

Snow Depth

Station Depth Elevation

Earthquake Activity

City Distance Mag. Time & Date
Minimum magnitude displayed is 2.5.

Coastal Water Temperatures

Place Temperature

Stations

Nearby Weather Stations

Station Location Temp. Windchill Dew Point Humidity Wind Precip. Elev Updated Type